sensor_id;sensor_type;location;lat;lon;timestamp;temperature;humidity
36816;DHT22;71982;52.294;6.760;2024-03-23T00:54:08;7.30;99.90
36816;DHT22;71982;52.294;6.760;2024-03-23T00:56:35;7.30;99.90
36816;DHT22;71982;52.294;6.760;2024-03-23T00:59:01;7.20;99.90
36816;DHT22;71982;52.294;6.760;2024-03-23T01:01:28;7.20;99.90
36816;DHT22;71982;52.294;6.760;2024-03-23T01:03:56;7.10;99.90
36816;DHT22;71982;52.294;6.760;2024-03-23T01:06:23;7.10;99.90
36816;DHT22;71982;52.294;6.760;2024-03-23T01:08:50;7.20;99.90
36816;DHT22;71982;52.294;6.760;2024-03-23T01:11:18;7.10;99.90
36816;DHT22;71982;52.294;6.760;2024-03-23T01:13:44;7.10;99.90
36816;DHT22;71982;52.294;6.760;2024-03-23T01:16:11;7.00;99.90
36816;DHT22;71982;52.294;6.760;2024-03-23T01:18:37;7.00;99.90
36816;DHT22;71982;52.294;6.760;2024-03-23T01:21:04;7.10;99.90
36816;DHT22;71982;52.294;6.760;2024-03-23T01:23:30;7.10;99.90
36816;DHT22;71982;52.294;6.760;2024-03-23T01:26:01;7.00;99.90
36816;DHT22;71982;52.294;6.760;2024-03-23T01:28:27;7.00;99.90
36816;DHT22;71982;52.294;6.760;2024-03-23T01:30:57;7.00;99.90
36816;DHT22;71982;52.294;6.760;2024-03-23T01:33:23;7.00;99.90
36816;DHT22;71982;52.294;6.760;2024-03-23T01:35:50;7.00;99.90
36816;DHT22;71982;52.294;6.760;2024-03-23T01:38:16;7.00;99.90
36816;DHT22;71982;52.294;6.760;2024-03-23T01:40:46;7.00;99.90
36816;DHT22;71982;52.294;6.760;2024-03-23T01:43:13;7.00;99.90
36816;DHT22;71982;52.294;6.760;2024-03-23T01:45:40;6.90;99.90
36816;DHT22;71982;52.294;6.760;2024-03-23T01:48:08;6.90;99.90
36816;DHT22;71982;52.294;6.760;2024-03-23T01:50:38;6.90;99.90
36816;DHT22;71982;52.294;6.760;2024-03-23T01:53:04;6.90;99.90
36816;DHT22;71982;52.294;6.760;2024-03-23T01:55:32;6.90;99.90
36816;DHT22;71982;52.294;6.760;2024-03-23T01:57:58;6.90;99.90
36816;DHT22;71982;52.294;6.760;2024-03-23T02:00:27;6.90;99.90
36816;DHT22;71982;52.294;6.760;2024-03-23T02:02:53;6.90;99.90
36816;DHT22;71982;52.294;6.760;2024-03-23T02:05:22;6.80;99.90
36816;DHT22;71982;52.294;6.760;2024-03-23T02:07:48;6.80;99.90
36816;DHT22;71982;52.294;6.760;2024-03-23T02:10:18;6.80;99.90
36816;DHT22;71982;52.294;6.760;2024-03-23T02:12:44;6.80;99.90
36816;DHT22;71982;52.294;6.760;2024-03-23T02:15:13;6.80;99.90
36816;DHT22;71982;52.294;6.760;2024-03-23T02:17:40;6.80;99.90
36816;DHT22;71982;52.294;6.760;2024-03-23T02:20:12;6.70;99.90
36816;DHT22;71982;52.294;6.760;2024-03-23T02:22:39;6.80;99.90
36816;DHT22;71982;52.294;6.760;2024-03-23T02:25:10;6.70;99.90
36816;DHT22;71982;52.294;6.760;2024-03-23T02:27:37;6.70;99.90
36816;DHT22;71982;52.294;6.760;2024-03-23T02:30:10;6.70;99.90
36816;DHT22;71982;52.294;6.760;2024-03-23T02:32:36;6.80;99.90
36816;DHT22;71982;52.294;6.760;2024-03-23T02:35:06;6.70;99.90
36816;DHT22;71982;52.294;6.760;2024-03-23T02:37:32;6.60;99.90
36816;DHT22;71982;52.294;6.760;2024-03-23T02:40:01;6.60;99.90
36816;DHT22;71982;52.294;6.760;2024-03-23T02:42:32;6.60;99.90
36816;DHT22;71982;52.294;6.760;2024-03-23T02:44:59;6.60;99.90
36816;DHT22;71982;52.294;6.760;2024-03-23T02:47:25;6.50;99.90
36816;DHT22;71982;52.294;6.760;2024-03-23T02:49:52;6.40;99.90
36816;DHT22;71982;52.294;6.760;2024-03-23T02:52:22;6.30;99.90
36816;DHT22;71982;52.294;6.760;2024-03-23T02:54:53;6.30;99.90
36816;DHT22;71982;52.294;6.760;2024-03-23T02:57:30;6.30;99.90
36816;DHT22;71982;52.294;6.760;2024-03-23T02:59:57;6.20;99.90
36816;DHT22;71982;52.294;6.760;2024-03-23T03:02:22;6.10;99.90
36816;DHT22;71982;52.294;6.760;2024-03-23T03:04:50;6.10;99.90
36816;DHT22;71982;52.294;6.760;2024-03-23T03:07:16;6.00;99.90
36816;DHT22;71982;52.294;6.760;2024-03-23T03:09:43;6.00;99.90
36816;DHT22;71982;52.294;6.760;2024-03-23T03:12:08;5.90;99.90
36816;DHT22;71982;52.294;6.760;2024-03-23T03:14:37;5.90;99.90
36816;DHT22;71982;52.294;6.760;2024-03-23T03:17:03;5.90;99.90
36816;DHT22;71982;52.294;6.760;2024-03-23T03:19:30;5.80;99.90
36816;DHT22;71982;52.294;6.760;2024-03-23T03:21:56;5.80;99.90
36816;DHT22;71982;52.294;6.760;2024-03-23T03:24:23;5.80;99.90
36816;DHT22;71982;52.294;6.760;2024-03-23T03:26:49;5.80;99.90
36816;DHT22;71982;52.294;6.760;2024-03-23T03:29:16;5.90;99.90
36816;DHT22;71982;52.294;6.760;2024-03-23T03:31:44;5.80;99.90
36816;DHT22;71982;52.294;6.760;2024-03-23T03:34:11;5.80;99.90
36816;DHT22;71982;52.294;6.760;2024-03-23T03:36:37;5.80;99.90
36816;DHT22;71982;52.294;6.760;2024-03-23T03:39:10;5.70;99.90
36816;DHT22;71982;52.294;6.760;2024-03-23T03:41:36;5.70;99.90
36816;DHT22;71982;52.294;6.760;2024-03-23T03:44:03;5.70;99.90
36816;DHT22;71982;52.294;6.760;2024-03-23T03:46:30;5.70;99.90
36816;DHT22;71982;52.294;6.760;2024-03-23T03:48:58;5.70;99.90
36816;DHT22;71982;52.294;6.760;2024-03-23T03:51:24;5.70;99.90
36816;DHT22;71982;52.294;6.760;2024-03-23T03:53:51;5.60;99.90
36816;DHT22;71982;52.294;6.760;2024-03-23T03:56:17;5.60;99.90
36816;DHT22;71982;52.294;6.760;2024-03-23T03:58:44;5.60;99.90
36816;DHT22;71982;52.294;6.760;2024-03-23T04:01:10;5.50;99.90
36816;DHT22;71982;52.294;6.760;2024-03-23T04:03:37;5.50;99.90
36816;DHT22;71982;52.294;6.760;2024-03-23T04:06:06;5.60;99.90
36816;DHT22;71982;52.294;6.760;2024-03-23T04:08:37;5.60;99.90
36816;DHT22;71982;52.294;6.760;2024-03-23T04:11:03;5.60;99.90
36816;DHT22;71982;52.294;6.760;2024-03-23T04:13:31;5.60;99.90
36816;DHT22;71982;52.294;6.760;2024-03-23T04:15:57;5.50;99.90
36816;DHT22;71982;52.294;6.760;2024-03-23T04:18:24;5.50;99.90
36816;DHT22;71982;52.294;6.760;2024-03-23T04:20:50;5.50;99.90
36816;DHT22;71982;52.294;6.760;2024-03-23T04:23:18;5.50;99.90
36816;DHT22;71982;52.294;6.760;2024-03-23T04:25:44;5.50;99.90
36816;DHT22;71982;52.294;6.760;2024-03-23T04:28:11;5.50;99.90
36816;DHT22;71982;52.294;6.760;2024-03-23T04:30:37;5.40;99.90
36816;DHT22;71982;52.294;6.760;2024-03-23T04:33:13;5.50;99.90
36816;DHT22;71982;52.294;6.760;2024-03-23T04:35:40;5.40;99.90
36816;DHT22;71982;52.294;6.760;2024-03-23T04:38:10;5.40;99.90
36816;DHT22;71982;52.294;6.760;2024-03-23T04:40:38;5.40;99.90
36816;DHT22;71982;52.294;6.760;2024-03-23T04:43:05;5.40;99.90
36816;DHT22;71982;52.294;6.760;2024-03-23T04:45:32;5.40;99.90
36816;DHT22;71982;52.294;6.760;2024-03-23T04:47:59;5.30;99.90
36816;DHT22;71982;52.294;6.760;2024-03-23T04:50:28;5.30;99.90
36816;DHT22;71982;52.294;6.760;2024-03-23T04:52:55;5.30;99.90
36816;DHT22;71982;52.294;6.760;2024-03-23T04:55:23;5.40;99.90
36816;DHT22;71982;52.294;6.760;2024-03-23T04:57:51;5.40;99.90
36816;DHT22;71982;52.294;6.760;2024-03-23T05:00:18;5.40;99.90
36816;DHT22;71982;52.294;6.760;2024-03-23T05:02:46;5.40;99.90
36816;DHT22;71982;52.294;6.760;2024-03-23T05:05:12;5.40;99.90
36816;DHT22;71982;52.294;6.760;2024-03-23T05:07:39;5.30;99.90
36816;DHT22;71982;52.294;6.760;2024-03-23T05:10:06;5.20;99.90
36816;DHT22;71982;52.294;6.760;2024-03-23T05:12:36;5.30;99.90
36816;DHT22;71982;52.294;6.760;2024-03-23T05:15:10;5.30;99.90
36816;DHT22;71982;52.294;6.760;2024-03-23T05:17:38;5.20;99.90
36816;DHT22;71982;52.294;6.760;2024-03-23T05:20:06;5.20;99.90
36816;DHT22;71982;52.294;6.760;2024-03-23T05:22:35;5.20;99.90
36816;DHT22;71982;52.294;6.760;2024-03-23T05:25:02;5.20;99.90
36816;DHT22;71982;52.294;6.760;2024-03-23T05:27:31;5.20;99.90
36816;DHT22;71982;52.294;6.760;2024-03-23T05:29:58;5.20;99.90
36816;DHT22;71982;52.294;6.760;2024-03-23T05:32:25;5.20;99.90
36816;DHT22;71982;52.294;6.760;2024-03-23T05:34:53;5.10;99.90
36816;DHT22;71982;52.294;6.760;2024-03-23T05:37:22;5.10;99.90
36816;DHT22;71982;52.294;6.760;2024-03-23T05:39:51;5.10;99.90
36816;DHT22;71982;52.294;6.760;2024-03-23T05:42:19;5.00;99.90
36816;DHT22;71982;52.294;6.760;2024-03-23T05:44:46;5.00;99.90
36816;DHT22;71982;52.294;6.760;2024-03-23T05:47:13;5.10;99.90
36816;DHT22;71982;52.294;6.760;2024-03-23T05:49:47;5.10;99.90
36816;DHT22;71982;52.294;6.760;2024-03-23T05:52:13;5.10;99.90
36816;DHT22;71982;52.294;6.760;2024-03-23T05:54:41;5.10;99.90
36816;DHT22;71982;52.294;6.760;2024-03-23T05:57:09;5.10;99.90
36816;DHT22;71982;52.294;6.760;2024-03-23T05:59:37;5.10;99.90
36816;DHT22;71982;52.294;6.760;2024-03-23T06:02:03;5.20;99.90
36816;DHT22;71982;52.294;6.760;2024-03-23T06:04:36;5.20;99.90
36816;DHT22;71982;52.294;6.760;2024-03-23T06:07:03;5.20;99.90
36816;DHT22;71982;52.294;6.760;2024-03-23T06:09:33;5.20;99.90
36816;DHT22;71982;52.294;6.760;2024-03-23T06:11:59;5.30;99.90
36816;DHT22;71982;52.294;6.760;2024-03-23T06:14:26;5.30;99.90
36816;DHT22;71982;52.294;6.760;2024-03-23T06:16:52;5.30;99.90
36816;DHT22;71982;52.294;6.760;2024-03-23T06:19:19;5.40;99.90
36816;DHT22;71982;52.294;6.760;2024-03-23T06:21:45;5.50;99.90
36816;DHT22;71982;52.294;6.760;2024-03-23T06:24:13;5.50;99.90
36816;DHT22;71982;52.294;6.760;2024-03-23T06:26:39;5.60;99.90
36816;DHT22;71982;52.294;6.760;2024-03-23T06:29:06;5.70;99.90
36816;DHT22;71982;52.294;6.760;2024-03-23T06:31:32;5.70;99.90
36816;DHT22;71982;52.294;6.760;2024-03-23T06:33:59;5.80;99.90
36816;DHT22;71982;52.294;6.760;2024-03-23T06:36:25;5.90;99.90
36816;DHT22;71982;52.294;6.760;2024-03-23T06:38:52;6.00;99.90
36816;DHT22;71982;52.294;6.760;2024-03-23T06:41:19;6.00;99.90
36816;DHT22;71982;52.294;6.760;2024-03-23T06:43:46;6.00;99.90
36816;DHT22;71982;52.294;6.760;2024-03-23T06:46:13;5.90;99.90
36816;DHT22;71982;52.294;6.760;2024-03-23T06:48:40;5.80;99.90
36816;DHT22;71982;52.294;6.760;2024-03-23T06:51:06;5.80;99.90
36816;DHT22;71982;52.294;6.760;2024-03-23T06:53:37;5.80;99.90
36816;DHT22;71982;52.294;6.760;2024-03-23T06:56:12;5.90;99.90
36816;DHT22;71982;52.294;6.760;2024-03-23T06:58:41;6.00;99.90
36816;DHT22;71982;52.294;6.760;2024-03-23T07:01:10;6.10;99.90
36816;DHT22;71982;52.294;6.760;2024-03-23T07:03:37;6.20;99.90
36816;DHT22;71982;52.294;6.760;2024-03-23T07:06:03;6.20;99.90
36816;DHT22;71982;52.294;6.760;2024-03-23T07:08:31;6.20;99.90
36816;DHT22;71982;52.294;6.760;2024-03-23T07:10:57;6.20;99.90
36816;DHT22;71982;52.294;6.760;2024-03-23T07:13:24;6.30;99.90
36816;DHT22;71982;52.294;6.760;2024-03-23T07:15:53;6.50;99.90
36816;DHT22;71982;52.294;6.760;2024-03-23T07:18:21;6.70;99.90
36816;DHT22;71982;52.294;6.760;2024-03-23T07:20:55;6.70;99.90
36816;DHT22;71982;52.294;6.760;2024-03-23T07:23:22;6.90;99.90
36816;DHT22;71982;52.294;6.760;2024-03-23T07:25:58;6.90;99.90
36816;DHT22;71982;52.294;6.760;2024-03-23T07:28:24;6.90;99.90
36816;DHT22;71982;52.294;6.760;2024-03-23T07:31:07;6.80;99.90
36816;DHT22;71982;52.294;6.760;2024-03-23T07:33:37;6.60;99.90
36816;DHT22;71982;52.294;6.760;2024-03-23T07:36:14;6.60;99.90
36816;DHT22;71982;52.294;6.760;2024-03-23T07:38:40;6.50;99.90
36816;DHT22;71982;52.294;6.760;2024-03-23T07:41:10;6.50;99.90
36816;DHT22;71982;52.294;6.760;2024-03-23T07:43:38;6.50;99.90
36816;DHT22;71982;52.294;6.760;2024-03-23T07:46:07;6.50;99.90
36816;DHT22;71982;52.294;6.760;2024-03-23T07:48:38;6.50;99.90
36816;DHT22;71982;52.294;6.760;2024-03-23T07:51:07;6.50;99.90
36816;DHT22;71982;52.294;6.760;2024-03-23T07:53:34;6.60;99.90
36816;DHT22;71982;52.294;6.760;2024-03-23T07:56:08;6.60;99.90
36816;DHT22;71982;52.294;6.760;2024-03-23T07:58:37;6.60;99.90
36816;DHT22;71982;52.294;6.760;2024-03-23T08:01:16;6.50;99.90
36816;DHT22;71982;52.294;6.760;2024-03-23T08:03:53;6.60;99.90
36816;DHT22;71982;52.294;6.760;2024-03-23T08:06:25;6.70;99.90
36816;DHT22;71982;52.294;6.760;2024-03-23T08:08:55;6.80;99.90
36816;DHT22;71982;52.294;6.760;2024-03-23T08:11:33;6.90;99.90
36816;DHT22;71982;52.294;6.760;2024-03-23T08:14:11;7.10;99.90
36816;DHT22;71982;52.294;6.760;2024-03-23T08:16:41;7.30;99.90
36816;DHT22;71982;52.294;6.760;2024-03-23T08:19:11;7.50;99.90
36816;DHT22;71982;52.294;6.760;2024-03-23T08:21:38;7.70;99.90
36816;DHT22;71982;52.294;6.760;2024-03-23T08:24:10;7.80;99.90
36816;DHT22;71982;52.294;6.760;2024-03-23T08:26:46;8.00;99.90
36816;DHT22;71982;52.294;6.760;2024-03-23T08:29:12;8.10;99.90
36816;DHT22;71982;52.294;6.760;2024-03-23T08:31:41;8.20;99.90
36816;DHT22;71982;52.294;6.760;2024-03-23T08:34:10;8.00;99.90
36816;DHT22;71982;52.294;6.760;2024-03-23T08:36:37;7.90;99.90
36816;DHT22;71982;52.294;6.760;2024-03-23T08:39:06;8.10;99.90
36816;DHT22;71982;52.294;6.760;2024-03-23T08:41:33;8.20;99.90
36816;DHT22;71982;52.294;6.760;2024-03-23T08:44:00;8.40;99.90
36816;DHT22;71982;52.294;6.760;2024-03-23T08:46:29;8.70;99.90
36816;DHT22;71982;52.294;6.760;2024-03-23T08:48:59;8.80;99.90
36816;DHT22;71982;52.294;6.760;2024-03-23T08:51:26;8.60;99.90
36816;DHT22;71982;52.294;6.760;2024-03-23T08:53:52;8.70;99.90
36816;DHT22;71982;52.294;6.760;2024-03-23T08:56:19;8.60;99.90
36816;DHT22;71982;52.294;6.760;2024-03-23T08:58:45;8.60;99.90
36816;DHT22;71982;52.294;6.760;2024-03-23T09:01:13;8.70;99.90
36816;DHT22;71982;52.294;6.760;2024-03-23T09:03:39;8.80;99.90
36816;DHT22;71982;52.294;6.760;2024-03-23T09:06:09;8.60;99.90
36816;DHT22;71982;52.294;6.760;2024-03-23T09:08:37;8.60;99.90
36816;DHT22;71982;52.294;6.760;2024-03-23T09:11:06;8.60;99.90
36816;DHT22;71982;52.294;6.760;2024-03-23T09:13:34;8.60;99.90
36816;DHT22;71982;52.294;6.760;2024-03-23T09:16:02;8.60;99.90
36816;DHT22;71982;52.294;6.760;2024-03-23T09:18:32;8.70;99.90
36816;DHT22;71982;52.294;6.760;2024-03-23T09:20:59;8.70;99.90
36816;DHT22;71982;52.294;6.760;2024-03-23T09:23:26;8.60;99.90
36816;DHT22;71982;52.294;6.760;2024-03-23T09:25:54;8.70;99.90
36816;DHT22;71982;52.294;6.760;2024-03-23T09:28:20;8.70;99.90
36816;DHT22;71982;52.294;6.760;2024-03-23T09:30:47;8.70;99.90
36816;DHT22;71982;52.294;6.760;2024-03-23T09:33:13;8.80;99.90
36816;DHT22;71982;52.294;6.760;2024-03-23T09:35:40;8.80;99.90
36816;DHT22;71982;52.294;6.760;2024-03-23T09:38:09;8.90;99.90
36816;DHT22;71982;52.294;6.760;2024-03-23T09:40:42;8.80;99.90
36816;DHT22;71982;52.294;6.760;2024-03-23T09:43:09;8.70;99.90
36816;DHT22;71982;52.294;6.760;2024-03-23T09:45:40;8.30;99.90
36816;DHT22;71982;52.294;6.760;2024-03-23T09:48:08;7.90;99.90
36816;DHT22;71982;52.294;6.760;2024-03-23T09:50:36;8.10;99.90
36816;DHT22;71982;52.294;6.760;2024-03-23T09:53:03;8.60;99.90
36816;DHT22;71982;52.294;6.760;2024-03-23T09:55:38;8.80;99.90
36816;DHT22;71982;52.294;6.760;2024-03-23T09:58:12;9.00;99.90
36816;DHT22;71982;52.294;6.760;2024-03-23T10:00:44;8.90;99.90
36816;DHT22;71982;52.294;6.760;2024-03-23T10:03:13;8.90;99.90
36816;DHT22;71982;52.294;6.760;2024-03-23T10:05:41;9.20;99.90
36816;DHT22;71982;52.294;6.760;2024-03-23T10:08:18;9.30;99.90
36816;DHT22;71982;52.294;6.760;2024-03-23T10:10:46;9.20;99.90
36816;DHT22;71982;52.294;6.760;2024-03-23T10:13:24;9.20;99.90
36816;DHT22;71982;52.294;6.760;2024-03-23T10:15:58;9.60;99.90
36816;DHT22;71982;52.294;6.760;2024-03-23T10:18:27;9.70;99.90
36816;DHT22;71982;52.294;6.760;2024-03-23T10:21:09;9.50;99.90
36816;DHT22;71982;52.294;6.760;2024-03-23T10:23:38;9.30;99.90
36816;DHT22;71982;52.294;6.760;2024-03-23T10:26:16;9.20;99.90
36816;DHT22;71982;52.294;6.760;2024-03-23T10:28:52;9.20;99.90
36816;DHT22;71982;52.294;6.760;2024-03-23T10:31:20;9.20;99.90
36816;DHT22;71982;52.294;6.760;2024-03-23T10:33:47;9.70;99.90
36816;DHT22;71982;52.294;6.760;2024-03-23T10:36:14;10.10;99.90
36816;DHT22;71982;52.294;6.760;2024-03-23T10:38:55;10.30;99.90
36816;DHT22;71982;52.294;6.760;2024-03-23T10:41:26;10.80;99.90
36816;DHT22;71982;52.294;6.760;2024-03-23T10:43:59;11.30;99.90
36816;DHT22;71982;52.294;6.760;2024-03-23T10:46:28;11.50;99.90
36816;DHT22;71982;52.294;6.760;2024-03-23T10:48:55;11.70;99.90
36816;DHT22;71982;52.294;6.760;2024-03-23T10:51:24;11.80;99.90
36816;DHT22;71982;52.294;6.760;2024-03-23T10:53:51;11.10;99.90
36816;DHT22;71982;52.294;6.760;2024-03-23T10:56:20;10.40;99.90
36816;DHT22;71982;52.294;6.760;2024-03-23T10:58:50;9.20;99.90
36816;DHT22;71982;52.294;6.760;2024-03-23T11:01:29;8.40;99.90
36816;DHT22;71982;52.294;6.760;2024-03-23T11:03:56;8.00;99.90
36816;DHT22;71982;52.294;6.760;2024-03-23T11:06:40;7.80;99.90
36816;DHT22;71982;52.294;6.760;2024-03-23T11:12:27;7.30;99.90
36816;DHT22;71982;52.294;6.760;2024-03-23T11:14:54;7.30;99.90
36816;DHT22;71982;52.294;6.760;2024-03-23T11:17:25;7.40;99.90
36816;DHT22;71982;52.294;6.760;2024-03-23T11:19:56;7.60;99.90
36816;DHT22;71982;52.294;6.760;2024-03-23T11:22:42;8.20;99.90
36816;DHT22;71982;52.294;6.760;2024-03-23T11:25:18;8.20;99.90
36816;DHT22;71982;52.294;6.760;2024-03-23T11:27:50;8.20;99.90
36816;DHT22;71982;52.294;6.760;2024-03-23T11:30:17;8.00;99.90
36816;DHT22;71982;52.294;6.760;2024-03-23T11:32:47;8.10;99.90
36816;DHT22;71982;52.294;6.760;2024-03-23T11:35:30;8.20;99.90
36816;DHT22;71982;52.294;6.760;2024-03-23T11:38:08;8.20;99.90
36816;DHT22;71982;52.294;6.760;2024-03-23T11:40:36;8.00;99.90
36816;DHT22;71982;52.294;6.760;2024-03-23T11:43:12;8.00;99.90
36816;DHT22;71982;52.294;6.760;2024-03-23T11:45:42;8.10;99.90
36816;DHT22;71982;52.294;6.760;2024-03-23T11:48:14;7.80;99.90
36816;DHT22;71982;52.294;6.760;2024-03-23T11:50:42;7.80;99.90
36816;DHT22;71982;52.294;6.760;2024-03-23T11:53:13;8.00;99.90
36816;DHT22;71982;52.294;6.760;2024-03-23T11:55:46;9.00;99.90
36816;DHT22;71982;52.294;6.760;2024-03-23T11:58:17;10.40;99.90
36816;DHT22;71982;52.294;6.760;2024-03-23T12:00:50;11.20;99.90
36816;DHT22;71982;52.294;6.760;2024-03-23T12:03:22;11.70;99.90
36816;DHT22;71982;52.294;6.760;2024-03-23T12:05:52;12.10;99.90
36816;DHT22;71982;52.294;6.760;2024-03-23T12:08:24;12.70;99.90
36816;DHT22;71982;52.294;6.760;2024-03-23T12:10:52;13.50;99.90
36816;DHT22;71982;52.294;6.760;2024-03-23T12:13:21;13.60;99.90
36816;DHT22;71982;52.294;6.760;2024-03-23T12:15:49;13.00;99.90
36816;DHT22;71982;52.294;6.760;2024-03-23T12:18:23;13.60;99.90
36816;DHT22;71982;52.294;6.760;2024-03-23T12:20:53;13.30;99.90
36816;DHT22;71982;52.294;6.760;2024-03-23T12:23:20;13.00;99.90
36816;DHT22;71982;52.294;6.760;2024-03-23T12:25:49;12.70;99.90
36816;DHT22;71982;52.294;6.760;2024-03-23T12:28:18;12.20;99.90
36816;DHT22;71982;52.294;6.760;2024-03-23T12:30:49;11.40;99.90
36816;DHT22;71982;52.294;6.760;2024-03-23T12:33:24;10.90;99.90
36816;DHT22;71982;52.294;6.760;2024-03-23T12:35:53;9.90;99.90
36816;DHT22;71982;52.294;6.760;2024-03-23T12:38:20;9.40;99.90
36816;DHT22;71982;52.294;6.760;2024-03-23T12:43:53;8.00;99.90
36816;DHT22;71982;52.294;6.760;2024-03-23T12:46:19;7.40;99.90
36816;DHT22;71982;52.294;6.760;2024-03-23T12:48:50;7.10;99.90
36816;DHT22;71982;52.294;6.760;2024-03-23T12:51:16;6.90;99.90
36816;DHT22;71982;52.294;6.760;2024-03-23T12:53:56;7.00;99.90
36816;DHT22;71982;52.294;6.760;2024-03-23T12:56:36;6.80;99.90
36816;DHT22;71982;52.294;6.760;2024-03-23T12:59:14;6.80;99.90
36816;DHT22;71982;52.294;6.760;2024-03-23T13:01:42;7.10;99.90
36816;DHT22;71982;52.294;6.760;2024-03-23T13:04:11;8.60;99.90
36816;DHT22;71982;52.294;6.760;2024-03-23T13:06:42;10.20;99.90
36816;DHT22;71982;52.294;6.760;2024-03-23T13:09:16;11.50;99.90
36816;DHT22;71982;52.294;6.760;2024-03-23T13:11:44;12.10;99.90
36816;DHT22;71982;52.294;6.760;2024-03-23T13:14:10;11.90;99.90
36816;DHT22;71982;52.294;6.760;2024-03-23T13:16:42;12.40;99.90
36816;DHT22;71982;52.294;6.760;2024-03-23T13:19:11;12.90;99.90
36816;DHT22;71982;52.294;6.760;2024-03-23T13:21:38;12.10;99.90
36816;DHT22;71982;52.294;6.760;2024-03-23T13:24:06;10.80;99.90
36816;DHT22;71982;52.294;6.760;2024-03-23T13:26:35;10.10;99.90
36816;DHT22;71982;52.294;6.760;2024-03-23T13:29:01;10.60;99.90
36816;DHT22;71982;52.294;6.760;2024-03-23T13:31:28;10.80;99.90
36816;DHT22;71982;52.294;6.760;2024-03-23T13:33:54;11.50;99.90
36816;DHT22;71982;52.294;6.760;2024-03-23T13:36:22;11.40;99.90
36816;DHT22;71982;52.294;6.760;2024-03-23T13:38:49;11.30;99.90
36816;DHT22;71982;52.294;6.760;2024-03-23T13:41:19;12.60;99.90
36816;DHT22;71982;52.294;6.760;2024-03-23T13:43:45;13.50;99.90
36816;DHT22;71982;52.294;6.760;2024-03-23T13:46:13;14.30;99.90
36816;DHT22;71982;52.294;6.760;2024-03-23T13:48:39;14.50;99.90
36816;DHT22;71982;52.294;6.760;2024-03-23T13:51:10;14.60;99.90
36816;DHT22;71982;52.294;6.760;2024-03-23T13:53:53;14.60;99.90
36816;DHT22;71982;52.294;6.760;2024-03-23T13:56:22;15.70;99.90
36816;DHT22;71982;52.294;6.760;2024-03-23T13:58:50;16.50;99.40
36816;DHT22;71982;52.294;6.760;2024-03-23T14:01:27;15.90;96.80
36816;DHT22;71982;52.294;6.760;2024-03-23T14:03:55;14.30;98.00
36816;DHT22;71982;52.294;6.760;2024-03-23T14:06:23;12.90;98.40
36816;DHT22;71982;52.294;6.760;2024-03-23T14:08:49;12.20;99.50
36816;DHT22;71982;52.294;6.760;2024-03-23T14:11:19;12.10;99.90
36816;DHT22;71982;52.294;6.760;2024-03-23T14:13:47;11.50;99.90
36816;DHT22;71982;52.294;6.760;2024-03-23T14:16:17;10.90;99.90
36816;DHT22;71982;52.294;6.760;2024-03-23T14:18:49;10.70;99.90
36816;DHT22;71982;52.294;6.760;2024-03-23T14:21:17;10.50;99.90
36816;DHT22;71982;52.294;6.760;2024-03-23T14:23:43;11.10;99.90
36816;DHT22;71982;52.294;6.760;2024-03-23T14:26:10;11.90;99.90
36816;DHT22;71982;52.294;6.760;2024-03-23T14:28:38;12.30;99.90
36816;DHT22;71982;52.294;6.760;2024-03-23T14:31:09;11.80;99.90
36816;DHT22;71982;52.294;6.760;2024-03-23T14:33:36;10.80;99.90
36816;DHT22;71982;52.294;6.760;2024-03-23T14:36:10;11.20;99.90
36816;DHT22;71982;52.294;6.760;2024-03-23T14:38:50;12.50;99.90
36816;DHT22;71982;52.294;6.760;2024-03-23T14:41:18;13.90;99.90
36816;DHT22;71982;52.294;6.760;2024-03-23T14:43:45;14.00;99.10
36816;DHT22;71982;52.294;6.760;2024-03-23T14:46:14;14.10;98.80
36816;DHT22;71982;52.294;6.760;2024-03-23T14:48:42;15.00;99.30
36816;DHT22;71982;52.294;6.760;2024-03-23T14:51:10;15.50;97.60
36816;DHT22;71982;52.294;6.760;2024-03-23T14:53:41;15.00;96.80
36816;DHT22;71982;52.294;6.760;2024-03-23T14:56:10;15.40;97.00
36816;DHT22;71982;52.294;6.760;2024-03-23T14:58:39;15.30;97.20
36816;DHT22;71982;52.294;6.760;2024-03-23T15:01:14;15.40;97.20
36816;DHT22;71982;52.294;6.760;2024-03-23T15:03:40;15.60;96.80
36816;DHT22;71982;52.294;6.760;2024-03-23T15:06:09;14.10;97.60
36816;DHT22;71982;52.294;6.760;2024-03-23T15:08:35;13.00;99.30
36816;DHT22;71982;52.294;6.760;2024-03-23T15:11:03;11.80;99.90
36816;DHT22;71982;52.294;6.760;2024-03-23T15:13:31;11.60;99.90
36816;DHT22;71982;52.294;6.760;2024-03-23T15:15:58;11.80;99.90
36816;DHT22;71982;52.294;6.760;2024-03-23T15:18:28;12.10;99.90
36816;DHT22;71982;52.294;6.760;2024-03-23T15:20:56;12.40;99.90
36816;DHT22;71982;52.294;6.760;2024-03-23T15:23:23;12.00;99.90
36816;DHT22;71982;52.294;6.760;2024-03-23T15:26:00;11.70;99.90
36816;DHT22;71982;52.294;6.760;2024-03-23T15:28:29;10.80;99.90
36816;DHT22;71982;52.294;6.760;2024-03-23T15:31:09;10.60;99.90
36816;DHT22;71982;52.294;6.760;2024-03-23T15:33:37;9.50;99.90
36816;DHT22;71982;52.294;6.760;2024-03-23T15:36:06;8.60;99.90
36816;DHT22;71982;52.294;6.760;2024-03-23T15:38:42;8.00;99.90
36816;DHT22;71982;52.294;6.760;2024-03-23T15:41:12;7.70;99.90
36816;DHT22;71982;52.294;6.760;2024-03-23T15:43:43;7.80;99.90
36816;DHT22;71982;52.294;6.760;2024-03-23T15:46:11;8.20;99.90
36816;DHT22;71982;52.294;6.760;2024-03-23T15:48:45;8.40;99.90
36816;DHT22;71982;52.294;6.760;2024-03-23T15:51:16;8.60;99.90
36816;DHT22;71982;52.294;6.760;2024-03-23T15:53:44;8.60;99.90
36816;DHT22;71982;52.294;6.760;2024-03-23T15:56:11;8.70;99.90
36816;DHT22;71982;52.294;6.760;2024-03-23T15:58:51;8.70;99.90
36816;DHT22;71982;52.294;6.760;2024-03-23T16:01:22;8.60;99.90
36816;DHT22;71982;52.294;6.760;2024-03-23T16:03:53;8.70;99.90
36816;DHT22;71982;52.294;6.760;2024-03-23T16:06:20;8.60;99.90
36816;DHT22;71982;52.294;6.760;2024-03-23T16:08:48;8.60;99.90
36816;DHT22;71982;52.294;6.760;2024-03-23T16:11:15;8.60;99.90
36816;DHT22;71982;52.294;6.760;2024-03-23T16:13:41;8.60;99.90
36816;DHT22;71982;52.294;6.760;2024-03-23T16:16:14;8.60;99.90
36816;DHT22;71982;52.294;6.760;2024-03-23T16:18:44;8.50;99.90
36816;DHT22;71982;52.294;6.760;2024-03-23T16:21:13;8.40;99.90
36816;DHT22;71982;52.294;6.760;2024-03-23T16:23:40;8.30;99.90
36816;DHT22;71982;52.294;6.760;2024-03-23T16:26:10;8.30;99.90
36816;DHT22;71982;52.294;6.760;2024-03-23T16:28:40;8.20;99.90
36816;DHT22;71982;52.294;6.760;2024-03-23T16:31:11;8.10;99.90
36816;DHT22;71982;52.294;6.760;2024-03-23T16:33:38;8.20;99.90
36816;DHT22;71982;52.294;6.760;2024-03-23T16:36:11;8.10;99.90
36816;DHT22;71982;52.294;6.760;2024-03-23T16:38:42;8.20;99.90
36816;DHT22;71982;52.294;6.760;2024-03-23T16:41:10;8.00;99.90
36816;DHT22;71982;52.294;6.760;2024-03-23T16:43:40;8.10;99.90
36816;DHT22;71982;52.294;6.760;2024-03-23T16:46:12;8.20;99.90
36816;DHT22;71982;52.294;6.760;2024-03-23T16:48:39;8.20;99.90
36816;DHT22;71982;52.294;6.760;2024-03-23T16:51:10;8.30;99.90
36816;DHT22;71982;52.294;6.760;2024-03-23T16:53:42;8.20;99.90